sensor_id;sensor_type;location;lat;lon;timestamp;temperature;humidity
39969;DHT22;25648;47.808;19.004;2022-12-18T00:01:18;6.50;54.60
39969;DHT22;25648;47.808;19.004;2022-12-18T00:03:44;6.30;54.40
39969;DHT22;25648;47.808;19.004;2022-12-18T00:06:11;6.40;54.00
39969;DHT22;25648;47.808;19.004;2022-12-18T00:08:37;5.90;55.20
39969;DHT22;25648;47.808;19.004;2022-12-18T00:11:07;6.00;55.20
39969;DHT22;25648;47.808;19.004;2022-12-18T00:13:34;6.20;54.80
39969;DHT22;25648;47.808;19.004;2022-12-18T00:16:06;6.00;55.00
39969;DHT22;25648;47.808;19.004;2022-12-18T00:18:32;5.90;55.30
39969;DHT22;25648;47.808;19.004;2022-12-18T00:21:00;6.00;55.30
39969;DHT22;25648;47.808;19.004;2022-12-18T00:23:26;5.80;55.40
39969;DHT22;25648;47.808;19.004;2022-12-18T00:25:52;6.00;55.10
39969;DHT22;25648;47.808;19.004;2022-12-18T00:28:18;6.10;54.80
39969;DHT22;25648;47.808;19.004;2022-12-18T00:30:44;6.10;54.70
39969;DHT22;25648;47.808;19.004;2022-12-18T00:33:10;6.10;54.40
39969;DHT22;25648;47.808;19.004;2022-12-18T00:35:35;5.90;54.70
39969;DHT22;25648;47.808;19.004;2022-12-18T00:38:01;5.90;55.20
39969;DHT22;25648;47.808;19.004;2022-12-18T00:40:27;6.00;55.10
39969;DHT22;25648;47.808;19.004;2022-12-18T00:42:52;6.20;54.90
39969;DHT22;25648;47.808;19.004;2022-12-18T00:45:31;6.40;54.30
39969;DHT22;25648;47.808;19.004;2022-12-18T00:47:57;6.40;53.90
39969;DHT22;25648;47.808;19.004;2022-12-18T00:50:24;6.30;54.20
39969;DHT22;25648;47.808;19.004;2022-12-18T00:52:50;6.20;54.20
39969;DHT22;25648;47.808;19.004;2022-12-18T00:55:16;6.20;54.60
39969;DHT22;25648;47.808;19.004;2022-12-18T00:57:42;6.30;54.50
39969;DHT22;25648;47.808;19.004;2022-12-18T01:00:10;6.50;54.20
39969;DHT22;25648;47.808;19.004;2022-12-18T01:02:36;6.40;54.10
39969;DHT22;25648;47.808;19.004;2022-12-18T01:05:02;6.40;53.60
39969;DHT22;25648;47.808;19.004;2022-12-18T01:07:28;6.10;54.60
39969;DHT22;25648;47.808;19.004;2022-12-18T01:09:54;6.00;55.00
39969;DHT22;25648;47.808;19.004;2022-12-18T01:12:19;6.20;54.30
39969;DHT22;25648;47.808;19.004;2022-12-18T01:14:45;6.10;54.00
39969;DHT22;25648;47.808;19.004;2022-12-18T01:17:11;6.10;54.00
39969;DHT22;25648;47.808;19.004;2022-12-18T01:19:36;6.20;53.90
39969;DHT22;25648;47.808;19.004;2022-12-18T01:22:02;6.20;54.20
39969;DHT22;25648;47.808;19.004;2022-12-18T01:24:28;6.10;53.70
39969;DHT22;25648;47.808;19.004;2022-12-18T01:26:54;6.10;54.40
39969;DHT22;25648;47.808;19.004;2022-12-18T01:29:20;6.40;54.00
39969;DHT22;25648;47.808;19.004;2022-12-18T01:31:45;6.60;53.50
39969;DHT22;25648;47.808;19.004;2022-12-18T01:34:11;6.80;52.80
39969;DHT22;25648;47.808;19.004;2022-12-18T01:36:38;6.80;52.40
39969;DHT22;25648;47.808;19.004;2022-12-18T01:39:06;6.40;53.10
39969;DHT22;25648;47.808;19.004;2022-12-18T01:41:33;6.40;53.40
39969;DHT22;25648;47.808;19.004;2022-12-18T01:47:20;6.30;53.60
39969;DHT22;25648;47.808;19.004;2022-12-18T01:49:47;6.00;53.50
39969;DHT22;25648;47.808;19.004;2022-12-18T01:52:13;6.00;54.20
39969;DHT22;25648;47.808;19.004;2022-12-18T01:54:39;6.10;54.10
39969;DHT22;25648;47.808;19.004;2022-12-18T01:57:05;6.20;53.40
39969;DHT22;25648;47.808;19.004;2022-12-18T01:59:32;6.20;53.90
39969;DHT22;25648;47.808;19.004;2022-12-18T02:01:59;6.00;54.00
39969;DHT22;25648;47.808;19.004;2022-12-18T02:04:27;5.90;54.40
39969;DHT22;25648;47.808;19.004;2022-12-18T02:07:13;5.80;54.60
39969;DHT22;25648;47.808;19.004;2022-12-18T02:09:47;6.00;54.50
39969;DHT22;25648;47.808;19.004;2022-12-18T02:12:23;6.00;54.40
39969;DHT22;25648;47.808;19.004;2022-12-18T02:17:23;6.20;54.40
39969;DHT22;25648;47.808;19.004;2022-12-18T02:25:57;6.40;53.10
39969;DHT22;25648;47.808;19.004;2022-12-18T02:28:30;6.20;53.40
39969;DHT22;25648;47.808;19.004;2022-12-18T02:30:58;6.20;53.30
39969;DHT22;25648;47.808;19.004;2022-12-18T02:33:27;6.30;53.90
39969;DHT22;25648;47.808;19.004;2022-12-18T02:35:55;6.40;53.30
39969;DHT22;25648;47.808;19.004;2022-12-18T02:45:00;6.40;53.30
39969;DHT22;25648;47.808;19.004;2022-12-18T02:54:41;6.80;52.40
39969;DHT22;25648;47.808;19.004;2022-12-18T02:57:44;6.80;52.50
39969;DHT22;25648;47.808;19.004;2022-12-18T03:03:56;6.70;52.50
39969;DHT22;25648;47.808;19.004;2022-12-18T03:06:41;6.70;52.80
39969;DHT22;25648;47.808;19.004;2022-12-18T03:16:53;6.80;52.60
39969;DHT22;25648;47.808;19.004;2022-12-18T03:55:57;5.50;55.40
39969;DHT22;25648;47.808;19.004;2022-12-18T04:12:00;5.10;56.40
39969;DHT22;25648;47.808;19.004;2022-12-18T04:25:32;5.70;54.90
39969;DHT22;25648;47.808;19.004;2022-12-18T04:49:33;5.30;55.30
39969;DHT22;25648;47.808;19.004;2022-12-18T07:02:11;4.60;56.70
39969;DHT22;25648;47.808;19.004;2022-12-18T07:07:47;4.10;57.70
39969;DHT22;25648;47.808;19.004;2022-12-18T07:10:15;4.10;58.10
39969;DHT22;25648;47.808;19.004;2022-12-18T07:12:59;4.10;58.40
39969;DHT22;25648;47.808;19.004;2022-12-18T07:15:30;4.30;57.50
39969;DHT22;25648;47.808;19.004;2022-12-18T07:17:56;4.20;57.60
39969;DHT22;25648;47.808;19.004;2022-12-18T07:24:07;4.80;56.70
39969;DHT22;25648;47.808;19.004;2022-12-18T07:26:33;4.90;56.70
39969;DHT22;25648;47.808;19.004;2022-12-18T07:28:58;5.10;56.30
39969;DHT22;25648;47.808;19.004;2022-12-18T07:34:53;5.10;56.20
39969;DHT22;25648;47.808;19.004;2022-12-18T07:37:18;5.10;55.80
39969;DHT22;25648;47.808;19.004;2022-12-18T07:49:26;5.40;55.90
39969;DHT22;25648;47.808;19.004;2022-12-18T07:55:37;5.00;57.30
39969;DHT22;25648;47.808;19.004;2022-12-18T08:01:25;5.10;57.40
39969;DHT22;25648;47.808;19.004;2022-12-18T08:03:50;5.40;56.70
39969;DHT22;25648;47.808;19.004;2022-12-18T08:06:16;5.60;56.10
39969;DHT22;25648;47.808;19.004;2022-12-18T08:12:10;6.10;54.70
39969;DHT22;25648;47.808;19.004;2022-12-18T08:17:57;6.30;54.00
39969;DHT22;25648;47.808;19.004;2022-12-18T08:20:23;5.90;54.80
39969;DHT22;25648;47.808;19.004;2022-12-18T08:22:48;6.00;55.20
39969;DHT22;25648;47.808;19.004;2022-12-18T08:25:17;6.00;55.00
39969;DHT22;25648;47.808;19.004;2022-12-18T08:27:43;5.80;55.40
39969;DHT22;25648;47.808;19.004;2022-12-18T08:30:09;5.80;56.20
39969;DHT22;25648;47.808;19.004;2022-12-18T08:32:35;6.00;55.50
39969;DHT22;25648;47.808;19.004;2022-12-18T08:35:01;6.40;55.10
39969;DHT22;25648;47.808;19.004;2022-12-18T08:37:26;6.70;55.10
39969;DHT22;25648;47.808;19.004;2022-12-18T08:39:52;7.00;53.50
39969;DHT22;25648;47.808;19.004;2022-12-18T08:42:18;7.20;53.80
39969;DHT22;25648;47.808;19.004;2022-12-18T08:45:02;7.70;52.80
39969;DHT22;25648;47.808;19.004;2022-12-18T08:47:28;8.90;51.20
39969;DHT22;25648;47.808;19.004;2022-12-18T08:49:54;10.00;49.30
39969;DHT22;25648;47.808;19.004;2022-12-18T08:52:20;11.30;48.10
39969;DHT22;25648;47.808;19.004;2022-12-18T08:54:45;12.80;46.10
39969;DHT22;25648;47.808;19.004;2022-12-18T08:57:11;13.70;44.10
39969;DHT22;25648;47.808;19.004;2022-12-18T08:59:37;14.90;43.30
39969;DHT22;25648;47.808;19.004;2022-12-18T09:02:02;15.40;42.60
39969;DHT22;25648;47.808;19.004;2022-12-18T09:04:28;15.30;42.20
39969;DHT22;25648;47.808;19.004;2022-12-18T09:06:53;16.20;41.50
39969;DHT22;25648;47.808;19.004;2022-12-18T09:09:19;16.70;40.60
39969;DHT22;25648;47.808;19.004;2022-12-18T09:11:45;16.60;40.60
39969;DHT22;25648;47.808;19.004;2022-12-18T09:14:10;16.70;40.40
39969;DHT22;25648;47.808;19.004;2022-12-18T09:16:36;16.90;40.50
39969;DHT22;25648;47.808;19.004;2022-12-18T09:19:03;16.70;40.00
39969;DHT22;25648;47.808;19.004;2022-12-18T09:21:37;16.70;40.40
39969;DHT22;25648;47.808;19.004;2022-12-18T09:24:05;16.20;40.40
39969;DHT22;25648;47.808;19.004;2022-12-18T09:26:38;16.30;40.60
39969;DHT22;25648;47.808;19.004;2022-12-18T09:29:04;16.90;40.60
39969;DHT22;25648;47.808;19.004;2022-12-18T09:31:30;17.40;39.80
39969;DHT22;25648;47.808;19.004;2022-12-18T09:33:56;17.70;39.80
39969;DHT22;25648;47.808;19.004;2022-12-18T10:20:56;11.40;46.60
39969;DHT22;25648;47.808;19.004;2022-12-18T10:26:26;17.30;40.40
39969;DHT22;25648;47.808;19.004;2022-12-18T10:28:53;18.00;39.60
39969;DHT22;25648;47.808;19.004;2022-12-18T10:31:23;18.30;39.10
39969;DHT22;25648;47.808;19.004;2022-12-18T10:46:41;18.20;38.80
39969;DHT22;25648;47.808;19.004;2022-12-18T10:49:18;17.50;39.80
39969;DHT22;25648;47.808;19.004;2022-12-18T10:51:44;16.50;40.10
39969;DHT22;25648;47.808;19.004;2022-12-18T10:54:17;15.90;40.60
39969;DHT22;25648;47.808;19.004;2022-12-18T10:56:46;14.90;41.70
39969;DHT22;25648;47.808;19.004;2022-12-18T11:13:15;13.30;43.50
39969;DHT22;25648;47.808;19.004;2022-12-18T11:15:42;13.10;44.50
39969;DHT22;25648;47.808;19.004;2022-12-18T11:20:51;12.30;45.10
39969;DHT22;25648;47.808;19.004;2022-12-18T11:56:47;10.30;48.00
39969;DHT22;25648;47.808;19.004;2022-12-18T12:32:37;10.70;47.40
39969;DHT22;25648;47.808;19.004;2022-12-18T12:38:11;11.00;46.90
39969;DHT22;25648;47.808;19.004;2022-12-18T12:40:57;11.00;46.50
39969;DHT22;25648;47.808;19.004;2022-12-18T12:43:33;10.90;46.90
39969;DHT22;25648;47.808;19.004;2022-12-18T12:46:04;10.80;46.40
39969;DHT22;25648;47.808;19.004;2022-12-18T12:48:53;10.80;46.60
39969;DHT22;25648;47.808;19.004;2022-12-18T12:51:45;10.80;46.50
39969;DHT22;25648;47.808;19.004;2022-12-18T12:54:19;10.70;46.80
39969;DHT22;25648;47.808;19.004;2022-12-18T12:58:28;10.70;46.20
39969;DHT22;25648;47.808;19.004;2022-12-18T13:01:07;10.60;46.80
39969;DHT22;25648;47.808;19.004;2022-12-18T13:08:58;11.00;46.10
39969;DHT22;25648;47.808;19.004;2022-12-18T13:11:44;10.90;45.80
39969;DHT22;25648;47.808;19.004;2022-12-18T13:14:35;11.00;46.60
39969;DHT22;25648;47.808;19.004;2022-12-18T13:17:27;10.90;46.50
39969;DHT22;25648;47.808;19.004;2022-12-18T13:20:14;10.80;46.60
39969;DHT22;25648;47.808;19.004;2022-12-18T13:22:49;10.80;46.80
39969;DHT22;25648;47.808;19.004;2022-12-18T13:28:10;10.70;47.10
39969;DHT22;25648;47.808;19.004;2022-12-18T13:30:57;10.30;47.20
39969;DHT22;25648;47.808;19.004;2022-12-18T13:38:33;10.40;47.20
39969;DHT22;25648;47.808;19.004;2022-12-18T13:41:26;10.40;46.90
39969;DHT22;25648;47.808;19.004;2022-12-18T13:43:59;10.20;47.30
39969;DHT22;25648;47.808;19.004;2022-12-18T13:46:49;10.30;47.30
39969;DHT22;25648;47.808;19.004;2022-12-18T13:49:22;10.30;47.60
39969;DHT22;25648;47.808;19.004;2022-12-18T13:51:50;10.40;47.60
39969;DHT22;25648;47.808;19.004;2022-12-18T13:56:49;10.50;47.00
39969;DHT22;25648;47.808;19.004;2022-12-18T13:59:23;10.50;47.40
39969;DHT22;25648;47.808;19.004;2022-12-18T14:01:58;10.50;47.50
39969;DHT22;25648;47.808;19.004;2022-12-18T14:06:57;10.50;47.50
39969;DHT22;25648;47.808;19.004;2022-12-18T14:09:27;10.40;48.40
39969;DHT22;25648;47.808;19.004;2022-12-18T14:11:54;9.90;49.60
39969;DHT22;25648;47.808;19.004;2022-12-18T14:14:46;9.60;50.10
39969;DHT22;25648;47.808;19.004;2022-12-18T14:17:13;9.60;50.30
39969;DHT22;25648;47.808;19.004;2022-12-18T14:19:49;9.70;50.20
39969;DHT22;25648;47.808;19.004;2022-12-18T14:22:21;9.80;50.00
39969;DHT22;25648;47.808;19.004;2022-12-18T14:24:47;9.80;49.90
39969;DHT22;25648;47.808;19.004;2022-12-18T14:27:29;9.90;49.80
39969;DHT22;25648;47.808;19.004;2022-12-18T14:29:55;9.80;50.10
39969;DHT22;25648;47.808;19.004;2022-12-18T14:32:21;9.70;50.30
39969;DHT22;25648;47.808;19.004;2022-12-18T14:34:50;9.50;50.30
39969;DHT22;25648;47.808;19.004;2022-12-18T14:37:21;9.30;50.80
39969;DHT22;25648;47.808;19.004;2022-12-18T14:40:00;9.00;51.30
39969;DHT22;25648;47.808;19.004;2022-12-18T14:42:35;9.00;51.30
39969;DHT22;25648;47.808;19.004;2022-12-18T14:48:41;8.90;51.80
39969;DHT22;25648;47.808;19.004;2022-12-18T14:51:21;9.00;51.80
39969;DHT22;25648;47.808;19.004;2022-12-18T14:53:54;9.00;51.90
39969;DHT22;25648;47.808;19.004;2022-12-18T14:56:31;8.90;52.10
39969;DHT22;25648;47.808;19.004;2022-12-18T14:59:20;9.00;51.90
39969;DHT22;25648;47.808;19.004;2022-12-18T15:01:58;9.00;51.50
39969;DHT22;25648;47.808;19.004;2022-12-18T15:08:56;8.90;51.50
39969;DHT22;25648;47.808;19.004;2022-12-18T15:11:44;8.90;51.40
39969;DHT22;25648;47.808;19.004;2022-12-18T15:16:53;8.70;51.90
39969;DHT22;25648;47.808;19.004;2022-12-18T15:19:21;8.70;51.70
39969;DHT22;25648;47.808;19.004;2022-12-18T15:21:47;8.60;52.00
39969;DHT22;25648;47.808;19.004;2022-12-18T15:24:24;8.60;52.00
39969;DHT22;25648;47.808;19.004;2022-12-18T15:26:51;8.70;51.60
39969;DHT22;25648;47.808;19.004;2022-12-18T15:29:21;8.70;51.30
39969;DHT22;25648;47.808;19.004;2022-12-18T15:32:17;8.50;52.00
39969;DHT22;25648;47.808;19.004;2022-12-18T15:34:44;8.40;52.10
39969;DHT22;25648;47.808;19.004;2022-12-18T15:37:09;8.50;52.00
39969;DHT22;25648;47.808;19.004;2022-12-18T15:39:35;8.60;51.90
39969;DHT22;25648;47.808;19.004;2022-12-18T15:42:01;8.60;51.90
39969;DHT22;25648;47.808;19.004;2022-12-18T15:44:46;8.60;51.80
39969;DHT22;25648;47.808;19.004;2022-12-18T15:47:12;8.60;51.60
39969;DHT22;25648;47.808;19.004;2022-12-18T15:49:38;8.60;51.50
39969;DHT22;25648;47.808;19.004;2022-12-18T15:52:04;8.60;51.40
39969;DHT22;25648;47.808;19.004;2022-12-18T15:54:30;8.60;51.30
39969;DHT22;25648;47.808;19.004;2022-12-18T15:57:15;8.40;51.40
39969;DHT22;25648;47.808;19.004;2022-12-18T15:59:54;8.20;51.70
39969;DHT22;25648;47.808;19.004;2022-12-18T16:02:22;8.10;52.10
39969;DHT22;25648;47.808;19.004;2022-12-18T16:04:48;8.00;52.10
39969;DHT22;25648;47.808;19.004;2022-12-18T16:07:15;7.80;52.60
39969;DHT22;25648;47.808;19.004;2022-12-18T16:09:41;7.70;52.70
39969;DHT22;25648;47.808;19.004;2022-12-18T16:12:15;7.80;52.80
39969;DHT22;25648;47.808;19.004;2022-12-18T16:14:41;7.90;52.40
39969;DHT22;25648;47.808;19.004;2022-12-18T16:17:10;7.80;52.30
39969;DHT22;25648;47.808;19.004;2022-12-18T16:19:36;7.80;52.40
39969;DHT22;25648;47.808;19.004;2022-12-18T16:22:02;7.90;52.30
39969;DHT22;25648;47.808;19.004;2022-12-18T16:24:30;8.00;52.30
39969;DHT22;25648;47.808;19.004;2022-12-18T16:26:57;8.00;52.30
39969;DHT22;25648;47.808;19.004;2022-12-18T16:29:25;7.90;52.60
39969;DHT22;25648;47.808;19.004;2022-12-18T16:32:01;7.70;53.20
39969;DHT22;25648;47.808;19.004;2022-12-18T16:34:47;7.70;53.10
39969;DHT22;25648;47.808;19.004;2022-12-18T16:37:15;7.90;52.40
39969;DHT22;25648;47.808;19.004;2022-12-18T16:39:41;8.00;52.10
39969;DHT22;25648;47.808;19.004;2022-12-18T16:42:18;7.80;51.30
39969;DHT22;25648;47.808;19.004;2022-12-18T16:44:45;7.50;51.80
39969;DHT22;25648;47.808;19.004;2022-12-18T16:47:11;7.40;52.20
39969;DHT22;25648;47.808;19.004;2022-12-18T16:49:37;7.40;52.40
39969;DHT22;25648;47.808;19.004;2022-12-18T16:52:06;7.30;52.70
39969;DHT22;25648;47.808;19.004;2022-12-18T16:54:32;7.20;53.10
39969;DHT22;25648;47.808;19.004;2022-12-18T16:57:01;7.20;53.10
39969;DHT22;25648;47.808;19.004;2022-12-18T16:59:27;7.40;53.20
39969;DHT22;25648;47.808;19.004;2022-12-18T17:01:53;7.50;52.80
39969;DHT22;25648;47.808;19.004;2022-12-18T17:04:20;7.50;52.90
39969;DHT22;25648;47.808;19.004;2022-12-18T17:06:46;7.60;52.40
39969;DHT22;25648;47.808;19.004;2022-12-18T17:09:19;7.30;52.40
39969;DHT22;25648;47.808;19.004;2022-12-18T17:11:51;7.20;52.60
39969;DHT22;25648;47.808;19.004;2022-12-18T17:14:19;6.90;53.90
39969;DHT22;25648;47.808;19.004;2022-12-18T17:16:46;6.70;54.30
39969;DHT22;25648;47.808;19.004;2022-12-18T17:19:12;6.90;53.90
39969;DHT22;25648;47.808;19.004;2022-12-18T17:21:38;7.10;53.30
39969;DHT22;25648;47.808;19.004;2022-12-18T17:24:04;7.10;53.10
39969;DHT22;25648;47.808;19.004;2022-12-18T17:26:32;7.00;53.40
39969;DHT22;25648;47.808;19.004;2022-12-18T17:28:58;6.90;53.50
39969;DHT22;25648;47.808;19.004;2022-12-18T17:31:26;6.60;53.90
39969;DHT22;25648;47.808;19.004;2022-12-18T17:33:52;6.50;54.50
39969;DHT22;25648;47.808;19.004;2022-12-18T17:36:19;6.50;54.30
39969;DHT22;25648;47.808;19.004;2022-12-18T17:38:53;6.50;54.60
39969;DHT22;25648;47.808;19.004;2022-12-18T17:41:19;6.70;54.20
39969;DHT22;25648;47.808;19.004;2022-12-18T17:43:51;6.80;53.80
39969;DHT22;25648;47.808;19.004;2022-12-18T17:46:16;6.90;53.50
39969;DHT22;25648;47.808;19.004;2022-12-18T17:48:42;7.00;52.70
39969;DHT22;25648;47.808;19.004;2022-12-18T17:51:25;6.90;52.90
39969;DHT22;25648;47.808;19.004;2022-12-18T17:53:51;6.70;54.30
39969;DHT22;25648;47.808;19.004;2022-12-18T17:56:18;6.50;53.50
39969;DHT22;25648;47.808;19.004;2022-12-18T17:58:44;6.60;53.30
39969;DHT22;25648;47.808;19.004;2022-12-18T18:01:16;6.60;53.40
39969;DHT22;25648;47.808;19.004;2022-12-18T18:03:43;6.50;55.10
39969;DHT22;25648;47.808;19.004;2022-12-18T18:06:08;6.50;54.10
39969;DHT22;25648;47.808;19.004;2022-12-18T18:08:35;6.60;53.70
39969;DHT22;25648;47.808;19.004;2022-12-18T18:11:11;6.70;53.10
39969;DHT22;25648;47.808;19.004;2022-12-18T18:13:56;6.70;53.00
39969;DHT22;25648;47.808;19.004;2022-12-18T18:16:28;6.60;53.00
39969;DHT22;25648;47.808;19.004;2022-12-18T18:18:57;6.60;53.10
39969;DHT22;25648;47.808;19.004;2022-12-18T18:21:22;6.40;53.70
39969;DHT22;25648;47.808;19.004;2022-12-18T18:23:49;6.40;53.80
39969;DHT22;25648;47.808;19.004;2022-12-18T18:26:15;6.30;53.60
39969;DHT22;25648;47.808;19.004;2022-12-18T18:28:40;6.40;53.50
39969;DHT22;25648;47.808;19.004;2022-12-18T18:31:08;6.40;53.20
39969;DHT22;25648;47.808;19.004;2022-12-18T18:33:34;6.40;53.00
39969;DHT22;25648;47.808;19.004;2022-12-18T18:36:01;6.50;52.80
39969;DHT22;25648;47.808;19.004;2022-12-18T18:38:27;6.50;52.80
39969;DHT22;25648;47.808;19.004;2022-12-18T18:41:01;6.30;53.10
39969;DHT22;25648;47.808;19.004;2022-12-18T18:43:27;5.80;54.20
39969;DHT22;25648;47.808;19.004;2022-12-18T18:45:57;5.90;53.90
39969;DHT22;25648;47.808;19.004;2022-12-18T18:48:23;6.00;53.60
39969;DHT22;25648;47.808;19.004;2022-12-18T18:51:18;6.20;52.80
39969;DHT22;25648;47.808;19.004;2022-12-18T18:53:46;6.40;52.40
39969;DHT22;25648;47.808;19.004;2022-12-18T18:56:15;6.40;52.30
39969;DHT22;25648;47.808;19.004;2022-12-18T18:58:42;6.40;51.80
39969;DHT22;25648;47.808;19.004;2022-12-18T19:01:11;6.30;52.00
39969;DHT22;25648;47.808;19.004;2022-12-18T19:03:38;6.30;52.30
39969;DHT22;25648;47.808;19.004;2022-12-18T19:06:05;6.20;52.40
39969;DHT22;25648;47.808;19.004;2022-12-18T19:08:34;6.20;52.40
39969;DHT22;25648;47.808;19.004;2022-12-18T19:11:01;6.00;53.70
39969;DHT22;25648;47.808;19.004;2022-12-18T19:13:29;5.90;53.10
39969;DHT22;25648;47.808;19.004;2022-12-18T19:16:03;6.00;53.00
39969;DHT22;25648;47.808;19.004;2022-12-18T19:18:29;6.00;53.30
39969;DHT22;25648;47.808;19.004;2022-12-18T19:21:02;5.80;53.30
39969;DHT22;25648;47.808;19.004;2022-12-18T19:23:28;5.90;53.10
39969;DHT22;25648;47.808;19.004;2022-12-18T19:25:54;6.10;52.70
39969;DHT22;25648;47.808;19.004;2022-12-18T19:28:21;6.10;52.60
39969;DHT22;25648;47.808;19.004;2022-12-18T19:30:55;5.90;53.40
39969;DHT22;25648;47.808;19.004;2022-12-18T19:33:23;5.80;54.30
39969;DHT22;25648;47.808;19.004;2022-12-18T19:35:50;5.90;54.00
39969;DHT22;25648;47.808;19.004;2022-12-18T19:38:16;6.00;53.40
39969;DHT22;25648;47.808;19.004;2022-12-18T19:40:42;6.10;53.20
39969;DHT22;25648;47.808;19.004;2022-12-18T19:43:09;6.00;52.90
39969;DHT22;25648;47.808;19.004;2022-12-18T19:45:34;6.00;52.70
39969;DHT22;25648;47.808;19.004;2022-12-18T19:48:00;6.00;52.20
39969;DHT22;25648;47.808;19.004;2022-12-18T19:50:27;6.00;52.60
39969;DHT22;25648;47.808;19.004;2022-12-18T19:52:52;6.10;52.10
39969;DHT22;25648;47.808;19.004;2022-12-18T19:55:18;6.00;51.80
39969;DHT22;25648;47.808;19.004;2022-12-18T19:57:44;5.90;52.10
39969;DHT22;25648;47.808;19.004;2022-12-18T20:00:11;5.80;52.30
39969;DHT22;25648;47.808;19.004;2022-12-18T20:02:36;5.70;53.10
39969;DHT22;25648;47.808;19.004;2022-12-18T20:05:04;5.60;52.30
39969;DHT22;25648;47.808;19.004;2022-12-18T20:07:30;5.50;52.00
39969;DHT22;25648;47.808;19.004;2022-12-18T20:09:56;5.60;52.00
39969;DHT22;25648;47.808;19.004;2022-12-18T20:12:22;5.40;51.60
39969;DHT22;25648;47.808;19.004;2022-12-18T20:14:48;5.20;52.20
39969;DHT22;25648;47.808;19.004;2022-12-18T20:17:13;5.00;52.30
39969;DHT22;25648;47.808;19.004;2022-12-18T20:19:39;4.80;52.30
39969;DHT22;25648;47.808;19.004;2022-12-18T20:22:06;4.70;52.90
39969;DHT22;25648;47.808;19.004;2022-12-18T20:24:31;4.90;52.90
39969;DHT22;25648;47.808;19.004;2022-12-18T20:26:57;4.90;53.00
39969;DHT22;25648;47.808;19.004;2022-12-18T20:29:23;4.90;53.00
39969;DHT22;25648;47.808;19.004;2022-12-18T20:31:49;4.80;53.10
39969;DHT22;25648;47.808;19.004;2022-12-18T20:35:28;4.90;52.40
39969;DHT22;25648;47.808;19.004;2022-12-18T20:37:56;5.00;52.70
39969;DHT22;25648;47.808;19.004;2022-12-18T20:40:22;5.00;53.10
39969;DHT22;25648;47.808;19.004;2022-12-18T20:42:48;5.20;53.10
39969;DHT22;25648;47.808;19.004;2022-12-18T20:45:13;5.20;52.60
39969;DHT22;25648;47.808;19.004;2022-12-18T20:47:39;5.10;51.90
39969;DHT22;25648;47.808;19.004;2022-12-18T20:50:05;5.10;51.90
39969;DHT22;25648;47.808;19.004;2022-12-18T20:52:31;5.10;52.00
39969;DHT22;25648;47.808;19.004;2022-12-18T20:54:57;5.10;52.30
39969;DHT22;25648;47.808;19.004;2022-12-18T20:57:23;5.20;52.40
39969;DHT22;25648;47.808;19.004;2022-12-18T20:59:49;5.30;52.20
39969;DHT22;25648;47.808;19.004;2022-12-18T21:02:15;5.20;52.10
39969;DHT22;25648;47.808;19.004;2022-12-18T21:04:40;5.20;52.20
39969;DHT22;25648;47.808;19.004;2022-12-18T21:07:06;5.20;52.10
39969;DHT22;25648;47.808;19.004;2022-12-18T21:09:32;5.20;52.60
39969;DHT22;25648;47.808;19.004;2022-12-18T21:11:58;5.20;52.40
39969;DHT22;25648;47.808;19.004;2022-12-18T21:14:43;5.20;52.50
39969;DHT22;25648;47.808;19.004;2022-12-18T21:17:09;5.00;52.80
39969;DHT22;25648;47.808;19.004;2022-12-18T21:19:35;4.90;53.20
39969;DHT22;25648;47.808;19.004;2022-12-18T21:22:01;4.80;53.30
39969;DHT22;25648;47.808;19.004;2022-12-18T21:24:28;4.70;53.90
39969;DHT22;25648;47.808;19.004;2022-12-18T21:26:54;4.70;54.10
39969;DHT22;25648;47.808;19.004;2022-12-18T21:29:24;4.60;54.20
39969;DHT22;25648;47.808;19.004;2022-12-18T21:31:51;4.70;54.00
39969;DHT22;25648;47.808;19.004;2022-12-18T21:34:24;4.80;54.30
39969;DHT22;25648;47.808;19.004;2022-12-18T21:36:51;4.90;54.30
39969;DHT22;25648;47.808;19.004;2022-12-18T21:39:17;4.90;54.30
39969;DHT22;25648;47.808;19.004;2022-12-18T21:41:43;4.90;55.40
39969;DHT22;25648;47.808;19.004;2022-12-18T21:44:28;4.70;56.30
39969;DHT22;25648;47.808;19.004;2022-12-18T21:46:54;4.60;58.10
39969;DHT22;25648;47.808;19.004;2022-12-18T21:49:20;4.30;60.30
39969;DHT22;25648;47.808;19.004;2022-12-18T21:51:47;4.70;59.80
39969;DHT22;25648;47.808;19.004;2022-12-18T21:54:14;5.00;59.20
39969;DHT22;25648;47.808;19.004;2022-12-18T21:56:49;5.30;59.00
39969;DHT22;25648;47.808;19.004;2022-12-18T22:01:47;5.90;58.00
39969;DHT22;25648;47.808;19.004;2022-12-18T22:04:14;6.00;57.80
39969;DHT22;25648;47.808;19.004;2022-12-18T22:06:40;6.10;58.30
39969;DHT22;25648;47.808;19.004;2022-12-18T22:09:07;6.30;57.60
39969;DHT22;25648;47.808;19.004;2022-12-18T22:11:33;6.40;57.70
39969;DHT22;25648;47.808;19.004;2022-12-18T22:13:59;6.40;57.80
39969;DHT22;25648;47.808;19.004;2022-12-18T22:16:25;6.40;57.70
39969;DHT22;25648;47.808;19.004;2022-12-18T22:18:50;6.50;57.70
39969;DHT22;25648;47.808;19.004;2022-12-18T22:21:25;6.50;57.20
39969;DHT22;25648;47.808;19.004;2022-12-18T22:24:04;6.30;57.30
39969;DHT22;25648;47.808;19.004;2022-12-18T22:26:31;6.20;58.10
39969;DHT22;25648;47.808;19.004;2022-12-18T22:28:57;6.00;58.30
39969;DHT22;25648;47.808;19.004;2022-12-18T22:31:41;6.00;58.50
39969;DHT22;25648;47.808;19.004;2022-12-18T22:34:07;5.80;58.80
39969;DHT22;25648;47.808;19.004;2022-12-18T22:36:42;5.60;59.20
39969;DHT22;25648;47.808;19.004;2022-12-18T22:39:14;5.60;59.00
39969;DHT22;25648;47.808;19.004;2022-12-18T22:41:41;5.60;59.00
39969;DHT22;25648;47.808;19.004;2022-12-18T22:44:07;5.60;59.20
39969;DHT22;25648;47.808;19.004;2022-12-18T22:46:39;5.60;59.20
39969;DHT22;25648;47.808;19.004;2022-12-18T22:49:06;5.70;59.40
39969;DHT22;25648;47.808;19.004;2022-12-18T22:51:35;5.70;59.90
39969;DHT22;25648;47.808;19.004;2022-12-18T22:54:00;5.90;59.20
39969;DHT22;25648;47.808;19.004;2022-12-18T22:56:26;6.10;58.90
39969;DHT22;25648;47.808;19.004;2022-12-18T22:58:51;6.30;58.20
39969;DHT22;25648;47.808;19.004;2022-12-18T23:01:20;6.60;57.80
39969;DHT22;25648;47.808;19.004;2022-12-18T23:03:47;6.80;57.30
39969;DHT22;25648;47.808;19.004;2022-12-18T23:06:13;6.70;57.60
39969;DHT22;25648;47.808;19.004;2022-12-18T23:08:39;6.80;57.30
39969;DHT22;25648;47.808;19.004;2022-12-18T23:11:04;7.10;56.90
39969;DHT22;25648;47.808;19.004;2022-12-18T23:13:32;7.30;56.30
39969;DHT22;25648;47.808;19.004;2022-12-18T23:15:59;7.30;56.40
39969;DHT22;25648;47.808;19.004;2022-12-18T23:18:25;7.60;56.10
39969;DHT22;25648;47.808;19.004;2022-12-18T23:20:50;7.70;55.60
39969;DHT22;25648;47.808;19.004;2022-12-18T23:23:16;7.80;55.50
39969;DHT22;25648;47.808;19.004;2022-12-18T23:25:42;7.80;55.30